Time;durP1;ratioP1;P1;durP2;ratioP2;P2;SDS_P1;SDS_P2;PMS_P1;PMS_P2;Temp;Humidity;BMP_temperature;BMP_pressure;BME280_temperature;BME280_humidity;BME280_pressure;Samples;Min_cycle;Max_cycle;Signal;HPM_P1;HPM_P2
2022/06/07 00:01:16;;;;;;;2.08;1.48;;;14.30;99.90;;;;;;5004612;28;20033;-84
2022/06/07 00:03:42;;;;;;;3.78;1.00;;;;;;;;;;5011356;28;20038;-83
2022/06/07 00:06:08;;;;;;;2.00;1.10;;;;;;;;;;5001725;28;20034;-84
2022/06/07 00:08:34;;;;;;;1.85;1.00;;;;;;;;;;4998835;28;20022;-85
2022/06/07 00:11:00;;;;;;;1.73;0.90;;;;;;;;;;5009483;28;20033;-84
2022/06/07 00:13:26;;;;;;;3.00;1.20;;;;;;;;;;5008030;28;20026;-85
2022/06/07 00:15:52;;;;;;;2.00;0.95;;;;;;;;;;5007432;28;20376;-83
2022/06/07 00:18:18;;;;;;;1.98;1.20;;;;;;;;;;5007130;28;20033;-84
2022/06/07 00:20:44;;;;;;;1.95;1.05;;;;;;;;;;5006656;28;20026;-83
2022/06/07 00:23:14;;;;;;;1.58;1.20;;;14.20;99.90;;;;;;5009310;28;20041;-83
2022/06/07 00:25:40;;;;;;;1.20;0.90;;;14.00;99.90;;;;;;5011310;28;20028;-84
2022/06/07 00:28:06;;;;;;;2.15;1.00;;;;;;;;;;5000568;28;20030;-84
2022/06/07 00:30:32;;;;;;;2.88;1.70;;;;;;;;;;5016205;28;20033;-83
2022/06/07 00:32:58;;;;;;;3.03;1.70;;;14.30;99.90;;;;;;5019792;28;20101;-83
2022/06/07 00:35:24;;;;;;;2.00;1.05;;;;;;;;;;5015192;28;20045;-83
2022/06/07 00:37:50;;;;;;;2.28;1.40;;;14.40;99.90;;;;;;5010851;28;20118;-82
2022/06/07 00:40:16;;;;;;;2.33;1.35;;;;;;;;;;5006868;28;20049;-84
2022/06/07 00:42:42;;;;;;;2.85;1.90;;;;;;;;;;5013860;28;20025;-83
2022/06/07 00:45:13;;;;;;;2.60;1.52;;;;;;;;;;5012945;28;20029;-84
2022/06/07 00:47:39;;;;;;;3.05;1.75;;;;;;;;;;5015867;28;20042;-84
2022/06/07 00:50:10;;;;;;;2.53;1.08;;;14.30;99.90;;;;;;5010618;28;20037;-82
2022/06/07 00:52:37;;;;;;;2.38;1.67;;;;;;;;;;5014268;28;20088;-83
2022/06/07 00:55:05;;;;;;;3.08;1.50;;;;;;;;;;5016272;28;20057;-82
2022/06/07 00:57:31;;;;;;;3.30;1.77;;;;;;;;;;5013994;28;20030;-82
2022/06/07 00:59:57;;;;;;;1.77;1.13;;;;;;;;;;5013542;28;20303;-83
2022/06/07 01:02:24;;;;;;;4.32;1.52;;;;;;;;;;5006566;28;20038;-82
2022/06/07 01:04:50;;;;;;;3.35;1.88;;;;;;;;;;5015899;28;20022;-82
2022/06/07 01:12:45;;;;;;;2.55;1.50;;;;;;;;;;5014849;28;20037;-85
2022/06/07 01:15:11;;;;;;;4.43;1.63;;;;;;;;;;5005223;28;20026;-85
2022/06/07 01:17:37;;;;;;;3.42;1.05;;;;;;;;;;5006855;28;20022;-87
2022/06/07 01:20:03;;;;;;;1.80;1.15;;;;;;;;;;4999637;28;20037;-84
2022/06/07 01:22:29;;;;;;;1.80;1.00;;;;;;;;;;5003216;28;20033;-86
2022/06/07 01:24:55;;;;;;;3.08;1.20;;;;;;;;;;5007350;28;20367;-82
2022/06/07 01:27:21;;;;;;;2.35;1.08;;;;;;;;;;5000942;28;20037;-84
2022/06/07 01:29:48;;;;;;;1.70;1.00;;;;;;;;;;4998259;28;20045;-85
2022/06/07 01:32:14;;;;;;;1.90;1.10;;;;;;;;;;5004122;28;20357;-86
2022/06/07 01:34:42;;;;;;;2.35;1.20;;;14.30;99.90;;;;;;4996898;28;20045;-86
2022/06/07 01:37:09;;;;;;;6.82;1.48;;;;;;;;;;5000283;28;20035;-85
2022/06/07 01:42:21;;;;;;;1.80;0.82;;;;;;;;;;5005560;28;20065;-85
2022/06/07 01:44:47;;;;;;;4.45;1.00;;;;;;;;;;5008679;28;20433;-84
2022/06/07 01:47:17;;;;;;;1.20;0.90;;;14.30;99.90;;;;;;5012014;28;20700;-86
2022/06/07 01:49:44;;;;;;;1.25;0.80;;;14.30;99.90;;;;;;5006671;28;20029;-83
2022/06/07 01:52:11;;;;;;;1.73;0.77;;;14.00;99.90;;;;;;5008245;28;20061;-85
2022/06/07 01:54:37;;;;;;;1.27;0.95;;;14.40;99.90;;;;;;5012785;28;20022;-82
2022/06/07 01:57:05;;;;;;;1.40;0.85;;;14.30;99.90;;;;;;5010487;28;20215;-81
2022/06/07 01:59:30;;;;;;;2.17;1.05;;;14.20;99.90;;;;;;5013693;28;20052;-82
2022/06/07 02:01:56;;;;;;;1.88;1.20;;;;;;;;;;5015815;28;20030;-84
2022/06/07 02:04:22;;;;;;;2.45;0.95;;;;;;;;;;5006127;28;20030;-83
2022/06/07 02:06:49;;;;;;;2.05;0.80;;;;;;;;;;5014676;28;20073;-81
2022/06/07 02:09:15;;;;;;;1.60;1.17;;;;;;;;;;5012675;28;20051;-83
2022/06/07 02:11:41;;;;;;;1.92;0.98;;;;;;;;;;5016722;28;20040;-83
2022/06/07 02:14:08;;;;;;;1.60;1.00;;;;;;;;;;5015027;28;20072;-82
2022/06/07 02:16:34;;;;;;;2.00;0.95;;;;;;;;;;5015346;28;20044;-83
2022/06/07 02:19:00;;;;;;;1.85;0.93;;;;;;;;;;5014334;28;20438;-83
2022/06/07 02:21:27;;;;;;;2.22;1.00;;;;;;;;;;5015921;28;20037;-83
2022/06/07 02:23:53;;;;;;;1.80;1.00;;;;;;;;;;5014085;28;20018;-82
2022/06/07 02:26:24;;;;;;;1.95;0.77;;;;;;;;;;5020496;28;20087;-82
2022/06/07 02:28:55;;;;;;;3.15;0.80;;;14.30;99.90;;;;;;5009907;28;20042;-83
2022/06/07 02:31:22;;;;;;;1.10;0.77;;;;;;;;;;5011861;28;20026;-83
2022/06/07 02:33:48;;;;;;;2.22;0.90;;;;;;;;;;5012657;28;20040;-83
2022/06/07 02:36:15;;;;;;;2.13;0.88;;;;;;;;;;5008098;28;20102;-84
2022/06/07 02:38:41;;;;;;;4.78;1.50;;;;;;;;;;5011758;28;20060;-83
2022/06/07 02:41:10;;;;;;;1.42;1.00;;;15.20;99.90;;;;;;5010250;28;20033;-84
2022/06/07 02:43:36;;;;;;;1.75;0.88;;;;;;;;;;5025599;28;20026;-84
2022/06/07 02:46:02;;;;;;;4.13;1.60;;;;;;;;;;5028300;28;20052;-84
2022/06/07 02:48:29;;;;;;;2.22;1.05;;;14.90;99.90;;;;;;5025131;28;20093;-81
2022/06/07 02:50:55;;;;;;;5.63;0.90;;;14.30;99.90;;;;;;5012601;28;20030;-83
2022/06/07 02:53:21;;;;;;;2.70;1.80;;;15.10;99.90;;;;;;5016640;28;20403;-84
2022/06/07 02:55:47;;;;;;;3.53;1.23;;;;;;;;;;5017176;28;20026;-85
2022/06/07 02:58:12;;;;;;;;;;;;;;;;;;5012074;28;20040;-82
2022/06/07 03:00:38;;;;;;;;;;;14.30;99.90;;;;;;5004901;28;19914;-84
2022/06/07 03:03:04;;;;;;;1.38;0.82;;;14.40;99.90;;;;;;5002935;28;19993;-85
2022/06/07 03:05:31;;;;;;;2.28;1.17;;;;;;;;;;5005247;28;20093;-85
2022/06/07 03:07:56;;;;;;;2.55;0.85;;;14.20;99.90;;;;;;5000222;28;20081;-82
2022/06/07 03:10:22;;;;;;;3.28;1.30;;;;;;;;;;5002426;28;20451;-84
2022/06/07 03:12:48;;;;;;;1.23;0.85;;;;;;;;;;5001175;28;20030;-85
2022/06/07 03:15:14;;;;;;;2.85;1.20;;;;;;;;;;5002119;28;20458;-86
2022/06/07 03:17:41;;;;;;;1.67;0.95;;;;;;;;;;5002198;28;20458;-87
2022/06/07 03:20:08;;;;;;;1.85;0.88;;;;;;;;;;4999886;28;20925;-85
2022/06/07 03:22:34;;;;;;;1.38;0.80;;;;;;;;;;4991512;28;20810;-87
2022/06/07 03:25:05;;;;;;;2.20;0.88;;;14.30;99.90;;;;;;5004811;28;20038;-83
2022/06/07 03:27:31;;;;;;;1.60;0.98;;;;;;;;;;5004059;28;20066;-83
2022/06/07 03:29:56;;;;;;;4.40;1.27;;;;;;;;;;5005941;28;20035;-86
2022/06/07 03:32:22;;;;;;;1.67;0.80;;;;;;;;;;5005703;28;20390;-83
2022/06/07 03:34:48;;;;;;;0.98;0.75;;;;;;;;;;5003828;28;20022;-85
2022/06/07 03:37:14;;;;;;;1.67;1.02;;;;;;;;;;5007571;28;20040;-85
2022/06/07 03:39:40;;;;;;;1.50;0.80;;;;;;;;;;5000879;28;20057;-86
2022/06/07 03:42:06;;;;;;;1.02;0.60;;;;;;;;;;5008170;28;20041;-85
2022/06/07 03:44:32;;;;;;;1.88;0.80;;;;;;;;;;5008975;28;20096;-84
2022/06/07 03:46:58;;;;;;;3.78;1.17;;;;;;;;;;5008682;28;20124;-84
2022/06/07 03:49:24;;;;;;;1.08;0.68;;;;;;;;;;5003541;28;20022;-86
2022/06/07 03:51:50;;;;;;;2.53;1.27;;;14.50;99.90;;;;;;5007638;28;20034;-83
2022/06/07 03:54:16;;;;;;;1.63;0.80;;;;;;;;;;5001886;28;20397;-84
2022/06/07 03:56:42;;;;;;;1.50;0.80;;;;;;;;;;4997947;28;20168;-84
2022/06/07 03:59:07;;;;;;;;;;;;;;;;;;5004953;28;20018;-84
2022/06/07 04:01:33;;;;;;;;;;;;;;;;;;5011277;28;20004;-83
2022/06/07 04:03:59;;;;;;;;;;;;;;;;;;5013284;28;19920;-83
2022/06/07 04:06:26;;;;;;;;;;;14.30;99.90;;;;;;5021010;28;19925;-83
2022/06/07 04:08:52;;;;;;;;;;;14.30;99.90;;;;;;5018020;28;19923;-82
2022/06/07 04:11:20;;;;;;;;;;;;;;;;;;5016425;28;20318;-82
2022/06/07 04:13:45;;;;;;;;;;;;;;;;;;5019174;28;19921;-83
2022/06/07 04:16:12;;;;;;;;;;;14.40;99.90;;;;;;5021469;28;20307;-82
2022/06/07 04:18:38;;;;;;;;;;;14.40;99.90;;;;;;5015596;28;19978;-82
2022/06/07 04:21:05;;;;;;;;;;;14.40;99.90;;;;;;5018809;28;19917;-81
2022/06/07 04:23:30;;;;;;;;;;;14.40;99.90;;;;;;5016772;28;19919;-81
2022/06/07 04:25:56;;;;;;;;;;;;;;;;;;5019838;28;19976;-83
2022/06/07 04:28:22;;;;;;;;;;;14.50;99.90;;;;;;5018075;28;19921;-84
2022/06/07 04:30:48;;;;;;;;;;;;;;;;;;5016902;28;20044;-84
2022/06/07 04:33:15;;;;;;;;;;;;;;;;;;5010595;28;20356;-85
2022/06/07 04:35:41;;;;;;;;;;;;;;;;;;5011758;28;20286;-84
2022/06/07 04:38:08;;;;;;;;;;;;;;;;;;5007313;28;19921;-87
2022/06/07 04:40:34;;;;;;;;;;;;;;;;;;5013139;28;19913;-85
2022/06/07 04:42:59;;;;;;;;;;;15.10;99.90;;;;;;5008517;28;19943;-85
2022/06/07 04:45:25;;;;;;;;;;;;;;;;;;5011099;28;19917;-85
2022/06/07 04:47:51;;;;;;;;;;;;;;;;;;5014856;28;19986;-87
2022/06/07 04:50:17;;;;;;;;;;;;;;;;;;5019740;28;19913;-85
2022/06/07 04:52:43;;;;;;;;;;;;;;;;;;5014124;28;20340;-82
2022/06/07 04:55:09;;;;;;;;;;;;;;;;;;5021649;28;19913;-85
2022/06/07 04:57:35;;;;;;;;;;;;;;;;;;5023667;28;20272;-84
2022/06/07 05:00:00;;;;;;;;;;;15.90;99.90;;;;;;5023850;28;19909;-83
2022/06/07 05:02:26;;;;;;;;;;;15.80;99.90;;;;;;5019832;28;19916;-84
2022/06/07 05:04:52;;;;;;;;;;;;;;;;;;5018581;28;19968;-83
2022/06/07 05:07:18;;;;;;;;;;;;;;;;;;5018711;28;21065;-84
2022/06/07 05:09:43;;;;;;;;;;;;;;;;;;5022266;28;19917;-83
2022/06/07 05:12:10;;;;;;;5.07;0.93;;;;;;;;;;5016924;28;19920;-83
2022/06/07 05:14:36;;;;;;;5.20;1.63;;;;;;;;;;5024048;28;20084;-84
2022/06/07 05:17:02;;;;;;;6.53;1.10;;;;;;;;;;5017595;28;20091;-85
2022/06/07 05:19:33;;;;;;;2.33;1.52;;;;;;;;;;5015350;28;20059;-83
2022/06/07 05:22:02;;;;;;;2.65;1.10;;;16.10;99.90;;;;;;5019978;28;20068;-82
2022/06/07 05:24:28;;;;;;;6.00;1.85;;;;;;;;;;5012893;28;20036;-82
2022/06/07 05:26:58;;;;;;;1.95;0.70;;;;;;;;;;5019622;28;20104;-83
2022/06/07 05:29:29;;;;;;;2.83;1.25;;;;;;;;;;5015592;28;20028;-82
2022/06/07 05:31:55;;;;;;;3.35;0.60;;;16.60;99.90;;;;;;5018538;28;20029;-82
2022/06/07 05:34:21;;;;;;;1.80;1.00;;;;;;;;;;5002123;28;20124;-84
2022/06/07 05:36:47;;;;;;;1.17;0.68;;;;;;;;;;5015427;28;20321;-85
2022/06/07 05:39:19;;;;;;;2.08;0.68;;;15.80;99.90;;;;;;5009055;28;20513;-83
2022/06/07 05:41:45;;;;;;;1.77;0.73;;;;;;;;;;5009808;28;20049;-79
2022/06/07 05:44:11;;;;;;;2.22;0.50;;;;;;;;;;5012725;28;20021;-81
2022/06/07 05:46:37;;;;;;;1.58;0.52;;;;;;;;;;5012706;28;20117;-79
2022/06/07 05:49:03;;;;;;;3.08;1.00;;;;;;;;;;5007730;28;20061;-81
2022/06/07 05:51:29;;;;;;;0.98;0.63;;;;;;;;;;5004671;28;20034;-80
2022/06/07 05:53:58;;;;;;;1.45;0.50;;;;;;;;;;5014016;28;20116;-80
2022/06/07 05:56:24;;;;;;;1.42;0.68;;;;;;;;;;5009631;28;20022;-82
2022/06/07 05:58:50;;;;;;;1.08;0.75;;;;;;;;;;5003400;28;20108;-82
2022/06/07 06:01:16;;;;;;;1.50;0.65;;;;;;;;;;5003810;28;20034;-86
2022/06/07 06:03:43;;;;;;;0.88;0.55;;;16.50;99.90;;;;;;5002521;28;20018;-84
2022/06/07 06:06:12;;;;;;;2.28;0.90;;;16.80;99.90;;;;;;5002174;28;20048;-83
2022/06/07 06:11:24;;;;;;;1.50;0.70;;;;;;;;;;5001897;28;20101;-83
2022/06/07 06:13:50;;;;;;;1.52;0.77;;;;;;;;;;5005421;28;20099;-83
2022/06/07 06:16:18;;;;;;;0.40;0.30;;;17.30;99.90;;;;;;5008951;28;20030;-83
2022/06/07 06:18:51;;;;;;;0.73;0.55;;;17.50;99.90;;;;;;5006477;28;20049;-82
2022/06/07 06:21:18;;;;;;;1.48;0.40;;;17.60;99.90;;;;;;5004712;28;20060;-83
2022/06/07 06:23:44;;;;;;;1.40;0.77;;;;;;;;;;5005124;28;20091;-81
2022/06/07 06:26:13;;;;;;;0.45;0.30;;;18.10;99.90;;;;;;5002469;28;20034;-83
2022/06/07 06:28:39;;;;;;;0.63;0.30;;;;;;;;;;4995188;28;20066;-79
2022/06/07 06:31:07;;;;;;;0.82;0.50;;;21.20;99.90;;;;;;5000496;28;20123;-81
2022/06/07 06:33:37;;;;;;;1.80;0.50;;;23.00;99.90;;;;;;4994042;28;20122;-82
2022/06/07 06:36:04;;;;;;;0.32;0.20;;;;;;;;;;4994813;28;20083;-82
2022/06/07 06:38:31;;;;;;;3.47;0.28;;;;;;;;;;4993278;28;20173;-82
2022/06/07 06:40:59;;;;;;;0.30;0.25;;;;;;;;;;4990501;28;20526;-83
2022/06/07 06:43:25;;;;;;;0.70;0.40;;;;;;;;;;4987918;28;20034;-82
2022/06/07 06:45:51;;;;;;;1.17;0.25;;;;;;;;;;4989326;28;20040;-81
2022/06/07 06:48:17;;;;;;;4.20;0.30;;;26.90;92.70;;;;;;4997414;28;20109;-83
2022/06/07 06:50:43;;;;;;;1.48;0.40;;;26.80;85.20;;;;;;4994499;28;20121;-83
2022/06/07 06:53:09;;;;;;;0.35;0.30;;;;;;;;;;4993681;28;20675;-83
2022/06/07 06:55:35;;;;;;;2.80;0.40;;;27.70;87.00;;;;;;5007734;28;20026;-82
2022/06/07 06:58:01;;;;;;;0.57;0.30;;;27.80;69.70;;;;;;5007848;28;20033;-82
2022/06/07 07:00:27;;;;;;;0.43;0.20;;;27.20;85.20;;;;;;5008835;28;20437;-83
2022/06/07 07:02:54;;;;;;;1.33;0.35;;;;;;;;;;5008960;28;20033;-83
2022/06/07 07:05:20;;;;;;;1.17;0.10;;;;;;;;;;5007837;28;20149;-84
2022/06/07 07:07:47;;;;;;;0.10;0.10;;;;;;;;;;5013583;28;20038;-83
2022/06/07 07:10:13;;;;;;;0.40;0.10;;;29.80;64.90;;;;;;5014069;28;20037;-83
2022/06/07 07:12:39;;;;;;;1.05;0.22;;;29.70;66.70;;;;;;5012683;28;20036;-82
2022/06/07 07:15:06;;;;;;;3.17;0.20;;;;;;;;;;5016309;28;20029;-84
2022/06/07 07:17:33;;;;;;;0.55;0.30;;;;;;;;;;5016446;28;20034;-83
2022/06/07 07:19:58;;;;;;;0.30;0.20;;;29.80;74.80;;;;;;5010949;28;20037;-84
2022/06/07 07:22:24;;;;;;;0.30;0.20;;;29.40;69.00;;;;;;5015446;28;20033;-82
2022/06/07 07:24:50;;;;;;;1.45;0.28;;;28.70;62.50;;;;;;5016686;28;20030;-83
2022/06/07 07:27:17;;;;;;;0.52;0.20;;;29.80;63.20;;;;;;5019851;28;20045;-83
2022/06/07 07:29:43;;;;;;;1.33;0.20;;;;;;;;;;5016312;28;20022;-83
2022/06/07 07:32:09;;;;;;;0.68;0.43;;;;;;;;;;5013838;28;20041;-82
2022/06/07 07:34:35;;;;;;;0.10;0.10;;;31.00;66.40;;;;;;5012663;28;20030;-82
2022/06/07 07:37:02;;;;;;;0.30;0.28;;;;;;;;;;5013149;28;20030;-83
2022/06/07 07:39:28;;;;;;;0.30;0.20;;;;;;;;;;5014120;28;20022;-82
2022/06/07 07:41:55;;;;;;;1.35;0.50;;;;;;;;;;5012158;28;20058;-84
2022/06/07 07:44:22;;;;;;;0.40;0.20;;;31.90;68.30;;;;;;5011668;28;20029;-83
2022/06/07 07:46:48;;;;;;;1.73;0.40;;;31.60;53.30;;;;;;5006288;28;20042;-83
2022/06/07 07:49:16;;;;;;;0.57;0.22;;;32.00;51.40;;;;;;5009082;28;20041;-83
2022/06/07 07:51:46;;;;;;;0.63;0.20;;;31.60;63.80;;;;;;5014451;28;20026;-83
2022/06/07 07:54:15;;;;;;;0.88;0.40;;;31.10;52.40;;;;;;5010735;28;20040;-84
2022/06/07 07:56:41;;;;;;;0.52;0.30;;;;;;;;;;5011826;28;20387;-84
2022/06/07 07:59:08;;;;;;;0.20;0.10;;;31.10;57.60;;;;;;5010290;28;20022;-84
2022/06/07 08:01:36;;;;;;;0.40;0.10;;;;;;;;;;5014265;28;20422;-84
2022/06/07 08:04:03;;;;;;;0.00;0.00;;;30.20;52.60;;;;;;5008569;28;20037;-82
2022/06/07 08:06:30;;;;;;;1.42;0.50;;;30.10;55.40;;;;;;5014752;28;20026;-82
2022/06/07 08:08:58;;;;;;;0.50;0.15;;;28.10;57.10;;;;;;5015286;28;20038;-83
2022/06/07 08:11:27;;;;;;;0.40;0.35;;;27.30;63.60;;;;;;5014589;28;20025;-82
2022/06/07 08:13:53;;;;;;;0.47;0.20;;;;;;;;;;5008402;28;20299;-83
2022/06/07 08:16:19;;;;;;;;;;;26.70;60.00;;;;;;5011578;28;20030;-84
2022/06/07 08:18:45;;;;;;;0.40;0.25;;;;;;;;;;5004914;28;19949;-84
2022/06/07 08:21:20;;;;;;;1.65;0.90;;;26.60;61.60;;;;;;5016184;28;20030;-83
2022/06/07 08:23:47;;;;;;;0.50;0.13;;;;;;;;;;5011721;28;20041;-82
2022/06/07 08:26:12;;;;;;;1.45;0.50;;;;;;;;;;5014132;28;20080;-83
2022/06/07 08:28:40;;;;;;;0.50;0.20;;;;;;;;;;5004363;28;20510;-84
2022/06/07 08:31:11;;;;;;;0.10;0.10;;;26.60;63.80;;;;;;5012118;28;20027;-82
2022/06/07 08:39:08;;;;;;;0.73;0.20;;;27.10;62.00;;;;;;5011215;28;20406;-83
2022/06/07 08:41:34;;;;;;;0.32;0.10;;;;;;;;;;5012021;28;20543;-83
2022/06/07 08:44:19;;;;;;;0.52;0.20;;;27.80;57.70;;;;;;5005493;28;20087;-81
2022/06/07 08:46:45;;;;;;;0.98;0.45;;;;;;;;;;5007218;28;20065;-82
2022/06/07 08:49:12;;;;;;;1.95;0.32;;;30.30;53.90;;;;;;5001288;28;20026;-84
2022/06/07 08:51:56;;;;;;;0.40;0.10;;;30.70;55.80;;;;;;5012519;28;20108;-83
2022/06/07 08:54:26;;;;;;;0.32;0.20;;;30.00;66.20;;;;;;5006608;28;20022;-83
2022/06/07 08:56:52;;;;;;;0.40;0.20;;;29.50;57.90;;;;;;5002714;28;20406;-84
2022/06/07 08:59:20;;;;;;;1.30;0.25;;;28.20;55.40;;;;;;5010978;28;20026;-82
2022/06/07 09:02:07;;;;;;;0.10;0.10;;;28.90;55.90;;;;;;5007337;28;20038;-83
2022/06/07 09:04:36;;;;;;;0.10;0.00;;;29.90;55.60;;;;;;5011232;28;20018;-84
2022/06/07 09:07:05;;;;;;;0.17;0.10;;;31.60;53.90;;;;;;5009402;28;20061;-84
2022/06/07 09:12:26;;;;;;;0.20;0.10;;;32.70;48.50;;;;;;5006330;28;20048;-81
2022/06/07 09:15:00;;;;;;;0.60;0.20;;;32.20;48.50;;;;;;5010560;28;20026;-83
2022/06/07 09:17:55;;;;;;;0.10;0.10;;;31.60;50.70;;;;;;5007128;28;20030;-83
2022/06/07 09:20:26;;;;;;;0.17;0.10;;;29.90;65.40;;;;;;5009896;28;20045;-82
2022/06/07 09:23:03;;;;;;;0.40;0.20;;;28.50;54.70;;;;;;5009415;28;20018;-82
2022/06/07 09:25:34;;;;;;;0.00;0.00;;;27.90;56.80;;;;;;5013429;28;20030;-82
2022/06/07 09:28:00;;;;;;;2.65;0.20;;;;;;;;;;5012631;28;20041;-84
2022/06/07 09:30:38;;;;;;;0.20;0.05;;;26.70;59.80;;;;;;5012060;28;20356;-84
2022/06/07 09:33:10;;;;;;;0.00;0.00;;;27.00;57.30;;;;;;5007859;28;20513;-82
2022/06/07 09:35:38;;;;;;;0.30;0.20;;;;;;;;;;5009426;28;20590;-83
2022/06/07 09:38:18;;;;;;;0.93;0.30;;;25.80;59.80;;;;;;5016582;28;20026;-83
2022/06/07 09:40:53;;;;;;;;;;;25.80;60.40;;;;;;5009982;28;20021;-84
2022/06/07 09:43:19;;;;;;;;;;;24.90;65.70;;;;;;5005589;28;19909;-83
2022/06/07 09:45:45;;;;;;;1.45;0.30;;;;;;;;;;5012141;28;19989;-84
2022/06/07 09:48:28;;;;;;;1.08;0.30;;;;;;;;;;5005641;28;20128;-83
2022/06/07 09:50:57;;;;;;;0.00;0.00;;;25.50;71.60;;;;;;5005251;28;20116;-84
2022/06/07 09:53:24;;;;;;;0.75;0.52;;;25.60;68.40;;;;;;5010230;28;20029;-84
2022/06/07 09:55:53;;;;;;;0.98;0.13;;;;;;;;;;5010226;28;20486;-84
2022/06/07 09:58:41;;;;;;;0.38;0.30;;;;;;;;;;5003683;28;20057;-82
2022/06/07 10:01:16;;;;;;;;;;;23.30;68.10;;;;;;5004958;28;20153;-83
2022/06/07 10:03:51;;;;;;;;;;;24.30;71.40;;;;;;5003233;28;19953;-83
2022/06/07 10:06:17;;;;;;;;;;;23.40;69.80;;;;;;5007136;28;19919;-83
2022/06/07 10:08:48;;;;;;;;;;;24.40;67.80;;;;;;5005671;28;20437;-82
2022/06/07 10:11:34;;;;;;;;;;;24.10;70.50;;;;;;5013427;28;19909;-84
2022/06/07 10:14:14;;;;;;;;;;;23.00;70.60;;;;;;5006484;28;19985;-83
2022/06/07 10:16:54;;;;;;;;;;;23.50;69.60;;;;;;5012299;28;20543;-84
2022/06/07 10:19:19;;;;;;;;;;;24.70;71.80;;;;;;5012122;28;19956;-84
2022/06/07 10:21:57;;;;;;;;;;;24.80;68.50;;;;;;5011336;28;19959;-83
2022/06/07 10:24:34;;;;;;;;;;;23.50;65.80;;;;;;5013237;28;19905;-84
2022/06/07 10:27:02;;;;;;;;;;;23.70;65.50;;;;;;5014198;28;19923;-82
2022/06/07 10:29:28;;;;;;;;;;;23.20;68.50;;;;;;5004928;28;19913;-83
2022/06/07 10:31:56;;;;;;;;;;;22.90;68.60;;;;;;5017583;28;20404;-83
2022/06/07 10:34:27;;;;;;;;;;;22.80;68.90;;;;;;5021334;28;20016;-83
2022/06/07 10:37:00;;;;;;;;;;;22.80;70.00;;;;;;5017245;28;19913;-81
2022/06/07 10:39:25;;;;;;;;;;;23.30;67.50;;;;;;5012742;28;19912;-83
2022/06/07 10:41:51;;;;;;;;;;;;;;;;;;5007768;28;19941;-82
2022/06/07 10:44:29;;;;;;;;;;;23.10;68.10;;;;;;5012643;28;20000;-86
2022/06/07 10:46:55;;;;;;;;;;;24.20;67.50;;;;;;5016171;28;19925;-83
2022/06/07 10:49:24;;;;;;;;;;;23.10;67.70;;;;;;5000272;28;19996;-81
2022/06/07 10:54:43;;;;;;;;;;;;;;;;;;5010425;28;19972;-82
2022/06/07 10:57:12;;;;;;;;;;;22.60;71.00;;;;;;5017665;28;20316;-83
2022/06/07 10:59:39;;;;;;;;;;;23.50;68.40;;;;;;5012307;28;19975;-82
2022/06/07 11:02:25;;;;;;;;;;;23.80;69.00;;;;;;5016967;28;19964;-83
2022/06/07 11:10:49;;;;;;;;;;;23.00;68.50;;;;;;5009473;28;19912;-82
2022/06/07 11:13:20;;;;;;;;;;;24.10;73.20;;;;;;5012945;28;20281;-83
2022/06/07 11:15:53;;;;;;;;;;;25.10;66.70;;;;;;5012913;28;20112;-82
2022/06/07 11:18:20;;;;;;;;;;;24.90;64.80;;;;;;5011339;28;19909;-83
2022/06/07 11:20:50;;;;;;;;;;;24.80;67.90;;;;;;5015137;28;20289;-84
2022/06/07 11:23:16;;;;;;;;;;;;;;;;;;5013130;28;19958;-83
2022/06/07 11:25:43;;;;;;;;;;;23.70;65.70;;;;;;5012874;28;19952;-83
2022/06/07 11:28:13;;;;;;;;;;;23.70;67.10;;;;;;5017567;28;19956;-81
2022/06/07 11:30:39;;;;;;;;;;;23.10;67.90;;;;;;5012327;28;20036;-80
2022/06/07 11:33:23;;;;;;;;;;;24.40;70.30;;;;;;5009963;28;19914;-81
2022/06/07 11:35:54;;;;;;;;;;;23.30;68.60;;;;;;5006518;28;19909;-82
2022/06/07 11:38:19;;;;;;;;;;;22.60;71.10;;;;;;5006743;28;19906;-81
2022/06/07 11:40:45;;;;;;;;;;;22.60;70.50;;;;;;5011225;28;19912;-82
2022/06/07 11:43:30;;;;;;;;;;;22.60;72.10;;;;;;5007182;28;20329;-83
2022/06/07 11:45:56;;;;;;;;;;;;;;;;;;5011479;28;20349;-81
2022/06/07 11:48:23;;;;;;;;;;;22.60;74.30;;;;;;5010998;28;19923;-82
2022/06/07 11:50:55;;;;;;;;;;;22.80;74.30;;;;;;5011196;28;19905;-80
2022/06/07 11:53:21;;;;;;;;;;;;;;;;;;5011182;28;19910;-82
2022/06/07 11:55:48;;;;;;;;;;;23.20;72.70;;;;;;5007354;28;20000;-82
2022/06/07 11:58:13;;;;;;;;;;;22.80;71.70;;;;;;5012565;28;19916;-83
2022/06/07 12:00:42;;;;;;;;;;;22.80;71.30;;;;;;5015185;28;19917;-82
2022/06/07 12:03:10;;;;;;;;;;;23.60;71.20;;;;;;5011431;28;19918;-81
2022/06/07 12:05:36;;;;;;;;;;;23.10;72.50;;;;;;5015200;28;19905;-81
2022/06/07 12:08:10;;;;;;;;;;;23.60;67.90;;;;;;5009998;28;20261;-82
2022/06/07 12:10:37;;;;;;;;;;;23.00;70.00;;;;;;5014100;28;20285;-82
2022/06/07 12:13:11;;;;;;;;;;;23.10;70.50;;;;;;5011862;28;20753;-83
2022/06/07 12:15:39;;;;;;;;;;;24.40;72.00;;;;;;5008267;28;19916;-81
2022/06/07 12:18:14;;;;;;;;;;;23.40;70.10;;;;;;5011715;28;19913;-84
2022/06/07 12:20:40;;;;;;;;;;;23.20;69.10;;;;;;5012022;28;19955;-83
2022/06/07 12:23:08;;;;;;;;;;;23.60;71.90;;;;;;5013636;28;19906;-82
2022/06/07 12:25:35;;;;;;;;;;;24.20;69.20;;;;;;5014185;28;19905;-82
2022/06/07 12:28:02;;;;;;;;;;;23.50;69.90;;;;;;5012202;28;19979;-82
2022/06/07 12:30:30;;;;;;;;;;;23.30;68.40;;;;;;5014202;28;19906;-83
2022/06/07 12:33:10;;;;;;;;;;;24.40;69.30;;;;;;5012626;28;19905;-82
2022/06/07 12:35:36;;;;;;;;;;;24.00;70.60;;;;;;5008758;28;19909;-80
2022/06/07 12:38:02;;;;;;;;;;;23.30;71.90;;;;;;5004637;28;20397;-82
2022/06/07 12:40:47;;;;;;;;;;;23.10;72.70;;;;;;5011939;28;19912;-83
2022/06/07 12:43:20;;;;;;;;;;;23.30;71.70;;;;;;4997582;28;20273;-82
2022/06/07 12:45:53;;;;;;;;;;;23.40;68.70;;;;;;5013952;28;19913;-81
2022/06/07 12:48:19;;;;;;;;;;;23.80;69.00;;;;;;5009288;28;19968;-82
2022/06/07 12:50:45;;;;;;;;;;;24.90;70.50;;;;;;5004622;28;20023;-82
2022/06/07 12:53:18;;;;;;;;;;;24.70;67.50;;;;;;5010937;28;19915;-83
2022/06/07 12:55:51;;;;;;;;;;;25.00;66.60;;;;;;5013308;28;19905;-83
2022/06/07 12:58:19;;;;;;;;;;;24.10;67.70;;;;;;5011851;28;19906;-83
2022/06/07 13:00:45;;;;;;;;;;;24.60;65.00;;;;;;5013217;28;19952;-83
2022/06/07 13:03:17;;;;;;;;;;;25.40;66.40;;;;;;5011318;28;19918;-81
2022/06/07 13:05:42;;;;;;;;;;;25.30;65.10;;;;;;5012899;28;19909;-83
2022/06/07 13:08:15;;;;;;;;;;;24.00;65.00;;;;;;5022633;28;19929;-84
2022/06/07 13:10:41;;;;;;;;;;;24.90;68.20;;;;;;5017130;28;19909;-83
2022/06/07 13:13:16;;;;;;;;;;;24.70;67.60;;;;;;5015374;28;19913;-83
2022/06/07 13:16:11;;;;;;;;;;;23.50;67.50;;;;;;5016293;28;19941;-84
2022/06/07 13:18:36;;;;;;;;;;;;;;;;;;5000316;28;20371;-82
2022/06/07 13:21:22;;;;;;;;;;;23.80;69.30;;;;;;5012822;28;19912;-82
2022/06/07 13:23:52;;;;;;;;;;;24.00;69.30;;;;;;5008384;28;20382;-83
2022/06/07 13:26:26;;;;;;;;;;;22.80;68.80;;;;;;5012299;28;20337;-82
2022/06/07 13:29:00;;;;;;;;;;;23.40;71.00;;;;;;5009569;28;19924;-83
2022/06/07 13:31:33;;;;;;;;;;;22.50;70.50;;;;;;5012754;28;20480;-83
2022/06/07 13:34:13;;;;;;;;;;;22.40;72.00;;;;;;5005301;28;20366;-83
2022/06/07 13:36:39;;;;;;;;;;;22.30;72.70;;;;;;5009256;28;19944;-81
2022/06/07 13:39:05;;;;;;;;;;;;;;;;;;5008108;28;19912;-82
2022/06/07 13:41:31;;;;;;;;;;;22.10;76.00;;;;;;5005657;28;19913;-82
2022/06/07 13:44:02;;;;;;;;;;;22.00;76.10;;;;;;5007547;28;19909;-82
2022/06/07 13:46:32;;;;;;;;;;;21.80;76.30;;;;;;5012821;28;20297;-83
2022/06/07 13:54:47;;;;;;;;;;;22.20;74.40;;;;;;5004746;28;20000;-81
2022/06/07 13:57:13;;;;;;;;;;;22.10;74.80;;;;;;5009406;28;19913;-81
2022/06/07 13:59:38;;;;;;;;;;;22.30;75.60;;;;;;5014150;28;19913;-82
2022/06/07 14:02:09;;;;;;;;;;;23.80;74.90;;;;;;5007957;28;20301;-82
2022/06/07 14:04:34;;;;;;;;;;;22.90;72.10;;;;;;5004340;28;19913;-82
2022/06/07 14:07:00;;;;;;;;;;;23.10;71.20;;;;;;5013107;28;19944;-82
2022/06/07 14:09:27;;;;;;;;;;;24.20;71.70;;;;;;5011234;28;19909;-83
2022/06/07 14:11:54;;;;;;;;;;;23.30;69.80;;;;;;5006354;28;20006;-82
2022/06/07 14:14:20;;;;;;;;;;;23.20;67.80;;;;;;5010379;28;19916;-82
2022/06/07 14:16:49;;;;;;;;;;;25.00;69.10;;;;;;5010461;28;20005;-81
2022/06/07 14:19:17;;;;;;;;;;;23.10;67.00;;;;;;5007784;28;19910;-82
2022/06/07 14:21:42;;;;;;;;;;;23.10;68.30;;;;;;5011644;28;19914;-81
2022/06/07 14:24:15;;;;;;;;;;;22.90;69.30;;;;;;5006145;28;19909;-82
2022/06/07 14:26:42;;;;;;;;;;;24.00;70.80;;;;;;5003902;28;19909;-82
2022/06/07 14:29:08;;;;;;;;;;;23.40;71.80;;;;;;5010069;28;19905;-82
2022/06/07 14:31:34;;;;;;;;;;;22.80;71.70;;;;;;5003848;28;19989;-81
2022/06/07 14:34:00;;;;;;;;;;;24.40;71.30;;;;;;5011337;28;19967;-82
2022/06/07 14:36:26;;;;;;;;;;;24.10;70.60;;;;;;5010571;28;19909;-81
2022/06/07 14:38:52;;;;;;;;;;;25.10;70.20;;;;;;5011075;28;19912;-82
2022/06/07 14:41:17;;;;;;;;;;;25.20;69.80;;;;;;5012030;28;19920;-82
2022/06/07 14:43:43;;;;;;;;;;;25.50;68.30;;;;;;5008039;28;19913;-81
2022/06/07 14:46:23;;;;;;;;;;;25.40;68.70;;;;;;5011137;28;20381;-82
2022/06/07 14:48:59;;;;;;;;;;;25.00;67.30;;;;;;5008323;28;19921;-83
2022/06/07 14:51:29;;;;;;;;;;;25.00;68.70;;;;;;5010228;28;20016;-82
2022/06/07 14:53:57;;;;;;;;;;;24.40;70.10;;;;;;5011169;28;19913;-82